Time;durP1;ratioP1;P1;durP2;ratioP2;P2;SDS_P1;SDS_P2;PMS_P1;PMS_P2;Temp;Humidity;BMP_temperature;BMP_pressure;BME280_temperature;BME280_humidity;BME280_pressure;Samples;Min_cycle;Max_cycle;Signal;HPM_P1;HPM_P2
2021/10/15 00:00:49;;;;;;;11.18;3.15;;;17.90;82.10;;;;;;5026238;28;20058;-74
2021/10/15 00:03:16;;;;;;;9.10;3.00;;;18.00;82.20;;;;;;5024652;28;20041;-89
2021/10/15 00:05:42;;;;;;;7.88;2.60;;;18.00;82.20;;;;;;5025566;28;20139;-78
2021/10/15 00:08:09;;;;;;;14.35;2.80;;;18.00;82.20;;;;;;5024463;28;20018;-85
2021/10/15 00:10:35;;;;;;;13.25;3.25;;;17.90;82.20;;;;;;5023586;28;20033;-88
2021/10/15 00:13:02;;;;;;;17.40;4.10;;;17.90;82.20;;;;;;5027417;28;20017;-75
2021/10/15 00:15:28;;;;;;;13.07;5.57;;;17.80;82.40;;;;;;5025278;28;20052;-84
2021/10/15 00:17:55;;;;;;;15.32;3.90;;;17.80;82.30;;;;;;5008266;28;20392;-81
2021/10/15 00:20:21;;;;;;;18.55;6.15;;;17.90;82.20;;;;;;5007112;28;20415;-88
2021/10/15 00:22:47;;;;;;;16.55;6.22;;;17.80;81.90;;;;;;5028866;28;20092;-86
2021/10/15 00:25:14;;;;;;;20.13;5.22;;;17.70;82.00;;;;;;5023167;28;20026;-85
2021/10/15 00:27:40;;;;;;;21.42;4.72;;;17.70;81.90;;;;;;5028052;28;20014;-86
2021/10/15 00:30:07;;;;;;;22.70;7.70;;;17.70;81.80;;;;;;5027044;28;20025;-82
2021/10/15 00:32:34;;;;;;;18.70;5.15;;;17.70;81.90;;;;;;5021563;28;20074;-73
2021/10/15 00:35:00;;;;;;;27.10;6.53;;;17.70;82.00;;;;;;5025160;28;20030;-82
2021/10/15 00:37:27;;;;;;;16.73;4.43;;;17.70;82.00;;;;;;5025946;28;20470;-88
2021/10/15 00:39:53;;;;;;;18.77;5.03;;;17.60;82.00;;;;;;5024527;28;20030;-89
2021/10/15 00:42:20;;;;;;;18.33;4.93;;;17.60;82.20;;;;;;5028447;28;20377;-78
2021/10/15 00:44:46;;;;;;;16.58;4.07;;;17.70;82.30;;;;;;5028161;28;20029;-81
2021/10/15 00:47:13;;;;;;;16.60;4.72;;;17.60;82.30;;;;;;5031748;28;20018;-75
2021/10/15 00:49:39;;;;;;;13.02;4.28;;;17.60;82.40;;;;;;5026215;28;20097;-87
2021/10/15 00:52:09;;;;;;;15.43;3.50;;;17.60;82.40;;;;;;5027940;28;20013;-83
2021/10/15 00:54:35;;;;;;;24.17;5.53;;;17.70;82.50;;;;;;5022769;28;20026;-78
2021/10/15 00:57:02;;;;;;;14.05;6.45;;;17.60;82.40;;;;;;5026277;28;20058;-74
2021/10/15 00:59:29;;;;;;;18.90;5.43;;;17.60;82.50;;;;;;5027173;28;20028;-88
2021/10/15 01:01:55;;;;;;;15.93;4.90;;;17.60;82.50;;;;;;5024360;28;20025;-76
2021/10/15 01:04:22;;;;;;;17.98;6.40;;;17.60;82.60;;;;;;5026648;28;20037;-88
2021/10/15 01:06:49;;;;;;;19.20;4.10;;;17.60;82.50;;;;;;5027746;28;20022;-83
2021/10/15 01:09:16;;;;;;;21.92;5.10;;;17.60;82.50;;;;;;5027616;28;20026;-85
2021/10/15 01:11:43;;;;;;;17.20;4.28;;;17.50;82.60;;;;;;5027781;28;20064;-77
2021/10/15 01:14:12;;;;;;;15.65;5.13;;;17.50;82.50;;;;;;5030153;28;20076;-87
2021/10/15 01:16:39;;;;;;;16.63;3.60;;;17.50;82.40;;;;;;5030027;28;20033;-73
2021/10/15 01:19:06;;;;;;;18.40;5.57;;;17.50;82.30;;;;;;5033390;28;20118;-75
2021/10/15 01:21:32;;;;;;;16.48;4.63;;;17.50;82.30;;;;;;5027922;28;20476;-89
2021/10/15 01:24:00;;;;;;;15.63;4.57;;;17.40;82.20;;;;;;5023953;28;20038;-89
2021/10/15 01:26:27;;;;;;;15.75;4.97;;;17.40;82.20;;;;;;5029501;28;20026;-72
2021/10/15 01:28:55;;;;;;;17.50;6.13;;;17.40;82.40;;;;;;5009561;28;20397;-82
2021/10/15 01:31:25;;;;;;;20.90;6.68;;;17.40;82.60;;;;;;5029541;28;20021;-74
2021/10/15 01:33:56;;;;;;;19.48;5.28;;;17.30;82.50;;;;;;5026851;28;20053;-79
2021/10/15 01:36:22;;;;;;;17.67;5.93;;;17.30;82.60;;;;;;5026005;28;20033;-80
2021/10/15 01:38:49;;;;;;;17.55;6.10;;;17.20;82.70;;;;;;5026583;28;20160;-86
2021/10/15 01:41:15;;;;;;;22.63;7.35;;;17.20;82.80;;;;;;5010131;28;20028;-74
2021/10/15 01:43:42;;;;;;;20.33;6.57;;;17.20;82.90;;;;;;5025995;28;20033;-80
2021/10/15 01:46:08;;;;;;;20.75;6.03;;;17.20;83.00;;;;;;5031143;28;20022;-86
2021/10/15 01:48:35;;;;;;;23.15;8.77;;;17.10;83.20;;;;;;5029033;28;20105;-73
2021/10/15 01:51:01;;;;;;;16.55;5.40;;;17.10;83.20;;;;;;5024421;28;20024;-82
2021/10/15 01:53:28;;;;;;;24.58;6.13;;;17.10;83.10;;;;;;5025475;28;20076;-77
2021/10/15 01:55:54;;;;;;;17.60;6.30;;;17.20;83.10;;;;;;5027740;28;20017;-85
2021/10/15 01:58:21;;;;;;;15.63;4.57;;;17.20;83.30;;;;;;5027608;28;20016;-82
2021/10/15 02:00:48;;;;;;;17.42;4.80;;;17.10;83.20;;;;;;5023106;28;20018;-85
2021/10/15 02:03:15;;;;;;;10.80;3.65;;;17.20;83.20;;;;;;5024291;28;20041;-85
2021/10/15 02:05:42;;;;;;;13.70;4.05;;;17.10;83.20;;;;;;5023370;28;20028;-74
2021/10/15 02:08:09;;;;;;;11.18;4.93;;;17.10;83.10;;;;;;5021466;28;20097;-72
2021/10/15 02:10:36;;;;;;;26.50;5.00;;;17.10;83.10;;;;;;5026462;28;20026;-72
2021/10/15 02:13:03;;;;;;;14.65;4.55;;;17.10;83.20;;;;;;5027593;28;20037;-88
2021/10/15 02:15:29;;;;;;;21.35;5.32;;;17.10;83.20;;;;;;5028435;28;20072;-78
2021/10/15 02:17:56;;;;;;;14.85;5.18;;;17.10;83.20;;;;;;5026357;28;20506;-88
2021/10/15 02:20:22;;;;;;;20.60;5.00;;;17.10;83.20;;;;;;5026234;28;20021;-78
2021/10/15 02:22:51;;;;;;;10.80;3.63;;;17.10;83.20;;;;;;5026874;28;20087;-73
2021/10/15 02:25:19;;;;;;;18.05;4.47;;;17.10;83.20;;;;;;5027964;28;20021;-72
2021/10/15 02:27:46;;;;;;;17.77;4.68;;;17.10;83.20;;;;;;5024560;28;20083;-82
2021/10/15 02:30:15;;;;;;;13.25;5.13;;;17.10;83.20;;;;;;5022233;28;20029;-88
2021/10/15 02:32:42;;;;;;;16.38;5.07;;;17.10;83.20;;;;;;5029240;28;20558;-81
2021/10/15 02:35:09;;;;;;;21.92;4.40;;;17.10;83.00;;;;;;5030171;28;20018;-84
2021/10/15 02:37:36;;;;;;;29.13;5.88;;;17.00;83.10;;;;;;5030088;28;20047;-85
2021/10/15 02:40:03;;;;;;;17.92;4.30;;;17.00;83.10;;;;;;5027274;28;20018;-81
2021/10/15 02:42:30;;;;;;;19.60;4.65;;;17.00;83.30;;;;;;5027070;28;20394;-88
2021/10/15 02:44:57;;;;;;;14.13;3.78;;;17.00;83.30;;;;;;5026576;28;20025;-89
2021/10/15 02:47:23;;;;;;;16.40;5.85;;;17.00;83.40;;;;;;5025897;28;20053;-80
2021/10/15 02:49:50;;;;;;;19.92;4.20;;;17.00;83.40;;;;;;5028480;28;20025;-72
2021/10/15 02:52:18;;;;;;;13.35;3.70;;;17.00;83.40;;;;;;5023143;28;20072;-73
2021/10/15 02:54:45;;;;;;;19.58;4.75;;;17.00;83.40;;;;;;5025271;28;20017;-78
2021/10/15 02:57:11;;;;;;;10.85;4.57;;;16.90;83.50;;;;;;5029246;28;20103;-75
2021/10/15 02:59:37;;;;;;;14.50;4.70;;;16.90;83.60;;;;;;5024388;28;20033;-75
2021/10/15 03:02:04;;;;;;;18.17;6.82;;;16.90;83.80;;;;;;5030038;28;20029;-73
2021/10/15 03:04:30;;;;;;;21.65;4.15;;;16.90;84.10;;;;;;5023888;28;20536;-81
2021/10/15 03:06:57;;;;;;;22.25;7.40;;;16.90;84.30;;;;;;5029185;28;20021;-79
2021/10/15 03:09:23;;;;;;;15.27;5.32;;;16.90;84.50;;;;;;5027648;28;20423;-85
2021/10/15 03:11:50;;;;;;;14.85;4.28;;;16.90;84.50;;;;;;5025503;28;20014;-75
2021/10/15 03:14:17;;;;;;;11.15;4.53;;;16.90;84.50;;;;;;5012021;28;20116;-90
2021/10/15 03:16:43;;;;;;;10.32;3.83;;;16.90;85.00;;;;;;5026511;28;20026;-77
2021/10/15 03:19:10;;;;;;;7.03;2.42;;;16.90;85.00;;;;;;5025139;28;20018;-91
2021/10/15 03:21:36;;;;;;;7.07;1.67;;;17.00;84.80;;;;;;5026761;28;20430;-80
2021/10/15 03:24:05;;;;;;;7.10;2.83;;;17.00;84.40;;;;;;5027299;28;20072;-89
2021/10/15 03:26:31;;;;;;;4.85;1.40;;;17.00;84.20;;;;;;5025541;28;20028;-83
2021/10/15 03:28:57;;;;;;;4.30;1.40;;;17.00;83.50;;;;;;5027224;28;20097;-80
2021/10/15 03:31:24;;;;;;;6.85;1.48;;;16.90;82.80;;;;;;5025550;28;20473;-73
2021/10/15 03:33:50;;;;;;;7.70;2.90;;;16.90;82.20;;;;;;5024156;28;20452;-80
2021/10/15 03:36:17;;;;;;;7.25;2.03;;;16.90;82.20;;;;;;5023752;28;20022;-74
2021/10/15 03:38:43;;;;;;;9.02;1.92;;;16.90;81.70;;;;;;5028279;28;20049;-87
2021/10/15 03:41:10;;;;;;;5.22;1.33;;;16.90;81.60;;;;;;5020670;28;20021;-74
2021/10/15 03:43:36;;;;;;;13.90;2.47;;;16.80;81.30;;;;;;5019607;28;20099;-81
2021/10/15 03:46:03;;;;;;;6.68;1.67;;;16.80;81.10;;;;;;5028761;28;20025;-77
2021/10/15 03:48:29;;;;;;;15.80;2.13;;;16.70;80.80;;;;;;5024739;28;20037;-81
2021/10/15 03:50:56;;;;;;;17.90;4.03;;;16.80;81.20;;;;;;5021845;28;20084;-75
2021/10/15 03:53:22;;;;;;;12.18;2.45;;;16.80;81.10;;;;;;5025664;28;20664;-75
2021/10/15 03:55:49;;;;;;;7.63;2.55;;;16.80;81.00;;;;;;5029456;28;20053;-75
2021/10/15 03:58:15;;;;;;;11.80;7.40;;;16.80;81.00;;;;;;5020358;28;20018;-75
2021/10/15 04:00:42;;;;;;;12.77;6.28;;;16.80;80.50;;;;;;5023381;28;20021;-75
2021/10/15 04:03:08;;;;;;;12.57;3.20;;;16.80;80.30;;;;;;5021220;28;20033;-75
2021/10/15 04:05:35;;;;;;;4.63;2.30;;;16.80;80.30;;;;;;5020572;28;20036;-79
2021/10/15 04:08:04;;;;;;;9.77;2.15;;;16.80;80.00;;;;;;5021806;28;20091;-74
2021/10/15 04:10:31;;;;;;;9.55;2.17;;;16.90;80.20;;;;;;5002783;28;20025;-73
2021/10/15 04:12:57;;;;;;;7.88;1.67;;;16.80;80.20;;;;;;5020593;28;20026;-72
2021/10/15 04:15:24;;;;;;;8.85;1.48;;;16.80;80.20;;;;;;5025530;28;20017;-76
2021/10/15 04:17:50;;;;;;;15.23;10.05;;;16.80;80.70;;;;;;5023177;28;20029;-67
2021/10/15 04:20:17;;;;;;;21.85;14.20;;;16.80;80.60;;;;;;5019807;28;20064;-72
2021/10/15 04:22:43;;;;;;;9.98;4.40;;;16.90;79.60;;;;;;5024532;28;20488;-74
2021/10/15 04:25:10;;;;;;;14.05;2.78;;;16.90;77.10;;;;;;5020111;28;20391;-73
2021/10/15 04:27:37;;;;;;;6.53;1.40;;;16.90;77.00;;;;;;5020223;28;20095;-73
2021/10/15 04:30:05;;;;;;;14.30;4.65;;;16.90;75.50;;;;;;5020472;28;20025;-72
2021/10/15 04:32:32;;;;;;;6.03;1.55;;;17.00;75.00;;;;;;5020896;28;20045;-73
2021/10/15 04:34:59;;;;;;;8.70;2.72;;;16.90;74.10;;;;;;5020094;28;20065;-75
2021/10/15 04:37:25;;;;;;;8.23;2.42;;;16.90;73.70;;;;;;5021017;28;20100;-74
2021/10/15 04:39:52;;;;;;;7.78;1.52;;;16.90;73.20;;;;;;5017887;28;20043;-72
2021/10/15 04:42:19;;;;;;;11.23;4.78;;;16.90;73.00;;;;;;5016362;28;20032;-75
2021/10/15 04:44:46;;;;;;;4.28;1.65;;;16.90;72.50;;;;;;5017371;28;21111;-72
2021/10/15 04:47:12;;;;;;;9.63;2.83;;;17.00;72.90;;;;;;5017715;28;20420;-75
2021/10/15 04:49:39;;;;;;;9.05;2.38;;;16.90;73.40;;;;;;5021163;28;21475;-74
2021/10/15 04:52:06;;;;;;;8.50;2.33;;;16.90;73.70;;;;;;5017774;28;20014;-74
2021/10/15 04:54:32;;;;;;;4.00;1.70;;;17.00;73.90;;;;;;5019959;28;20049;-78
2021/10/15 04:56:59;;;;;;;6.60;2.88;;;17.00;74.20;;;;;;5016075;28;20068;-76
2021/10/15 04:59:25;;;;;;;9.35;1.55;;;17.00;74.20;;;;;;5020049;28;20287;-75
2021/10/15 05:01:52;;;;;;;8.90;1.80;;;17.00;74.20;;;;;;5017095;28;20140;-77
2021/10/15 05:04:19;;;;;;;6.53;3.28;;;17.00;74.20;;;;;;5016387;28;20044;-75
2021/10/15 05:06:45;;;;;;;6.75;1.92;;;17.00;73.60;;;;;;5018524;28;20056;-77
2021/10/15 05:11:45;;;;;;;9.40;1.75;;;17.10;72.90;;;;;;5022760;28;20048;-74
2021/10/15 05:14:11;;;;;;;8.93;1.67;;;17.10;72.40;;;;;;5014880;28;20503;-75
2021/10/15 05:16:38;;;;;;;7.00;1.73;;;17.10;72.00;;;;;;5016524;28;20053;-75
2021/10/15 05:19:04;;;;;;;14.45;2.05;;;17.10;71.50;;;;;;5019647;28;20018;-75
2021/10/15 05:21:31;;;;;;;9.18;2.20;;;17.10;71.30;;;;;;5014220;28;20022;-75
2021/10/15 05:23:57;;;;;;;4.45;1.52;;;17.10;71.10;;;;;;5018249;28;20076;-78
2021/10/15 05:26:24;;;;;;;7.25;2.50;;;17.10;71.00;;;;;;5016595;28;20026;-74
2021/10/15 05:28:50;;;;;;;7.75;2.00;;;17.10;70.90;;;;;;5019725;28;20088;-75
2021/10/15 05:31:17;;;;;;;8.57;2.50;;;17.10;70.20;;;;;;5013948;28;20060;-74
2021/10/15 05:33:43;;;;;;;11.80;2.97;;;17.20;70.30;;;;;;5022235;28;20523;-74
2021/10/15 05:36:10;;;;;;;5.15;1.60;;;17.20;69.90;;;;;;5025203;28;20504;-74
2021/10/15 05:38:36;;;;;;;6.47;2.38;;;17.20;69.50;;;;;;5022092;28;20063;-75
2021/10/15 05:41:03;;;;;;;6.22;2.05;;;17.20;69.90;;;;;;5018140;28;20619;-74
2021/10/15 05:43:29;;;;;;;3.70;2.17;;;17.20;68.80;;;;;;5020751;28;20065;-76
2021/10/15 05:45:55;;;;;;;7.00;1.50;;;17.30;67.50;;;;;;5022839;28;20029;-74
2021/10/15 05:48:24;;;;;;;6.85;1.40;;;17.30;67.00;;;;;;5025109;28;20013;-74
2021/10/15 05:50:51;;;;;;;5.72;1.50;;;17.30;66.80;;;;;;5004300;28;20036;-74
2021/10/15 05:53:19;;;;;;;4.30;1.13;;;17.40;66.30;;;;;;5022023;28;20559;-74
2021/10/15 05:56:05;;;;;;;8.45;1.50;;;17.40;65.20;;;;;;5025636;28;20152;-74
2021/10/15 05:58:50;;;;;;;10.90;3.08;;;17.40;65.40;;;;;;5025019;28;20030;-75
2021/10/15 06:01:26;;;;;;;4.50;1.20;;;17.50;64.50;;;;;;5021386;28;20068;-74
2021/10/15 06:04:27;;;;;;;5.00;1.52;;;17.40;63.40;;;;;;5025551;28;20072;-78
2021/10/15 06:15:04;;;;;;;8.00;1.90;;;17.50;61.20;;;;;;5019642;28;20455;-74
2021/10/15 06:17:30;;;;;;;9.02;2.13;;;17.50;60.70;;;;;;5026932;28;20427;-75
2021/10/15 06:19:57;;;;;;;6.78;1.40;;;17.50;60.10;;;;;;5022516;28;20017;-76
2021/10/15 06:22:25;;;;;;;5.00;1.50;;;17.50;60.50;;;;;;5025746;28;20028;-75
2021/10/15 06:24:52;;;;;;;6.57;1.63;;;17.40;60.30;;;;;;5023187;28;20404;-76
2021/10/15 06:27:21;;;;;;;3.45;0.82;;;17.50;59.60;;;;;;5027403;28;20473;-76
2021/10/15 06:29:48;;;;;;;6.53;1.92;;;17.50;59.30;;;;;;5021754;28;20029;-74
2021/10/15 06:32:20;;;;;;;3.88;1.00;;;17.50;59.80;;;;;;5021957;28;20022;-77
2021/10/15 06:34:47;;;;;;;5.05;1.83;;;17.50;59.50;;;;;;5025071;28;20060;-74
2021/10/15 06:37:13;;;;;;;7.47;1.83;;;17.60;59.60;;;;;;5028550;28;20052;-74
2021/10/15 06:39:40;;;;;;;7.20;1.80;;;17.60;60.20;;;;;;5028229;28;20080;-77
2021/10/15 06:42:07;;;;;;;7.82;1.75;;;17.70;60.00;;;;;;5004791;28;20026;-75
2021/10/15 06:44:33;;;;;;;9.50;1.20;;;17.70;59.00;;;;;;5026130;28;20029;-77
2021/10/15 06:46:59;;;;;;;4.15;1.17;;;17.70;58.80;;;;;;5007132;28;20033;-77
2021/10/15 06:49:26;;;;;;;6.82;1.60;;;17.70;59.10;;;;;;5022621;28;20542;-75
2021/10/15 06:51:52;;;;;;;7.38;1.33;;;17.70;58.50;;;;;;5020832;28;20030;-78
2021/10/15 06:54:19;;;;;;;6.60;1.58;;;17.70;58.40;;;;;;5024988;28;20019;-75
2021/10/15 06:56:46;;;;;;;6.75;1.30;;;17.80;57.30;;;;;;5023495;28;20032;-76
2021/10/15 06:59:12;;;;;;;6.05;1.50;;;17.80;57.00;;;;;;5022411;28;20040;-79
2021/10/15 07:01:38;;;;;;;8.05;1.40;;;17.90;56.60;;;;;;5028029;28;20061;-74
2021/10/15 07:04:05;;;;;;;7.03;1.13;;;17.80;55.70;;;;;;5025604;28;20034;-75
2021/10/15 07:06:32;;;;;;;10.95;1.52;;;17.80;55.30;;;;;;5019320;28;20036;-75
2021/10/15 07:09:00;;;;;;;3.78;1.30;;;17.90;55.50;;;;;;5023483;28;20504;-78
2021/10/15 07:11:26;;;;;;;5.43;1.30;;;17.90;55.20;;;;;;5023758;28;20057;-74
2021/10/15 07:13:53;;;;;;;4.22;0.93;;;18.00;54.40;;;;;;5021743;28;20022;-74
2021/10/15 07:16:19;;;;;;;3.97;1.15;;;18.10;54.90;;;;;;5022255;28;20038;-74
2021/10/15 07:18:46;;;;;;;3.65;1.23;;;18.20;54.80;;;;;;5022622;28;20101;-76
2021/10/15 07:21:12;;;;;;;6.20;1.23;;;18.30;53.80;;;;;;5022855;28;20026;-77
2021/10/15 07:23:39;;;;;;;6.40;1.13;;;18.30;53.20;;;;;;5023951;28;20068;-76
2021/10/15 07:26:05;;;;;;;2.78;0.80;;;18.40;52.80;;;;;;5024767;28;20018;-73
2021/10/15 07:28:32;;;;;;;6.38;1.92;;;18.40;52.70;;;;;;5020699;28;20033;-81
2021/10/15 07:30:59;;;;;;;6.82;1.35;;;18.50;53.30;;;;;;5004513;28;20396;-75
2021/10/15 07:33:26;;;;;;;5.93;1.58;;;18.60;53.30;;;;;;5020411;28;20050;-76
2021/10/15 07:35:52;;;;;;;4.82;1.38;;;18.60;53.50;;;;;;5022366;28;20023;-77
2021/10/15 07:38:19;;;;;;;6.05;1.13;;;18.70;52.50;;;;;;5020355;28;20022;-83
2021/10/15 07:40:45;;;;;;;3.75;1.15;;;18.80;52.50;;;;;;5025356;28;20021;-81
2021/10/15 07:43:12;;;;;;;2.10;0.85;;;18.80;52.20;;;;;;5018114;28;20501;-77
2021/10/15 07:45:38;;;;;;;4.30;1.33;;;18.80;52.10;;;;;;5022124;28;20111;-80
2021/10/15 07:48:05;;;;;;;6.20;1.20;;;18.90;51.90;;;;;;5022376;28;20025;-81
2021/10/15 07:50:31;;;;;;;6.10;1.15;;;18.90;52.40;;;;;;5022250;28;20030;-79
2021/10/15 07:52:58;;;;;;;5.40;1.13;;;19.00;52.20;;;;;;5019807;28;20025;-77
2021/10/15 07:55:25;;;;;;;4.72;1.10;;;19.00;52.30;;;;;;5025547;28;20542;-75
2021/10/15 07:57:51;;;;;;;4.30;1.13;;;19.10;52.20;;;;;;5018842;28;20080;-82
2021/10/15 08:00:18;;;;;;;4.40;1.00;;;19.10;52.30;;;;;;5022470;28;20017;-82
2021/10/15 08:02:44;;;;;;;5.15;1.30;;;19.10;52.10;;;;;;5020181;28;20060;-81
2021/10/15 08:05:13;;;;;;;8.23;1.25;;;19.20;52.70;;;;;;5022839;28;20061;-84
2021/10/15 08:07:41;;;;;;;6.07;1.50;;;19.20;52.00;;;;;;5022640;28;20071;-80
2021/10/15 08:10:10;;;;;;;6.15;1.35;;;19.20;52.40;;;;;;5019649;28;20477;-77
2021/10/15 08:12:37;;;;;;;6.38;1.88;;;19.20;52.80;;;;;;5023988;28;20029;-79
2021/10/15 08:15:09;;;;;;;6.88;1.45;;;19.20;52.50;;;;;;5024163;28;20037;-82
2021/10/15 08:17:36;;;;;;;4.75;1.00;;;19.30;52.60;;;;;;5022246;28;20055;-74
2021/10/15 08:20:04;;;;;;;5.43;1.38;;;19.30;52.50;;;;;;5018017;28;20022;-74
2021/10/15 08:22:30;;;;;;;7.70;1.35;;;19.30;52.50;;;;;;5022095;28;20108;-74
2021/10/15 08:24:57;;;;;;;6.15;1.23;;;19.40;52.20;;;;;;5022896;28;21096;-79
2021/10/15 08:27:23;;;;;;;6.97;1.50;;;19.30;52.00;;;;;;5020123;28;20025;-75
2021/10/15 08:29:50;;;;;;;4.75;1.33;;;19.40;52.10;;;;;;5023954;28;20026;-84
2021/10/15 08:32:16;;;;;;;5.82;1.55;;;19.50;52.20;;;;;;5022120;28;20026;-76
2021/10/15 08:34:43;;;;;;;7.22;1.50;;;19.60;52.10;;;;;;5025525;28;20052;-81
2021/10/15 08:37:09;;;;;;;4.38;1.15;;;19.70;51.80;;;;;;5021833;28;20070;-80
2021/10/15 08:39:36;;;;;;;7.93;1.05;;;19.80;50.90;;;;;;5021426;28;20021;-77
2021/10/15 08:42:03;;;;;;;8.48;1.05;;;19.80;50.30;;;;;;5024769;28;20116;-75
2021/10/15 08:44:45;;;;;;;10.10;2.08;;;19.90;50.30;;;;;;5024098;28;20052;-78
2021/10/15 08:47:14;;;;;;;3.15;1.10;;;19.80;50.10;;;;;;5025386;28;20041;-76
2021/10/15 08:49:41;;;;;;;5.70;1.10;;;19.60;50.40;;;;;;5023201;28;20039;-75
2021/10/15 08:52:07;;;;;;;8.25;1.50;;;19.50;51.10;;;;;;5023790;28;20350;-74
2021/10/15 08:54:33;;;;;;;6.13;1.65;;;19.60;51.90;;;;;;5022607;28;20033;-75
2021/10/15 08:57:00;;;;;;;4.07;1.10;;;19.50;52.60;;;;;;5007419;28;20075;-81
2021/10/15 08:59:56;;;;;;;5.45;1.20;;;19.60;53.40;;;;;;5022694;28;20022;-75
2021/10/15 09:02:23;;;;;;;;;;;19.70;53.70;;;;;;5013674;28;20072;-73
2021/10/15 09:04:58;;;;;;;6.88;1.42;;;19.80;53.50;;;;;;5026384;28;19913;-83
2021/10/15 09:07:27;;;;;;;3.55;1.40;;;19.80;52.60;;;;;;5022363;28;20025;-75
2021/10/15 09:10:12;;;;;;;9.70;1.65;;;19.90;52.50;;;;;;5025908;28;20029;-75
2021/10/15 09:12:44;;;;;;;8.55;1.25;;;19.90;53.10;;;;;;5022977;28;20022;-76
2021/10/15 09:15:11;;;;;;;6.30;1.73;;;20.00;53.30;;;;;;5023751;28;20021;-74
2021/10/15 09:17:52;;;;;;;4.53;1.38;;;20.10;51.30;;;;;;5024077;28;20041;-74
2021/10/15 09:20:35;;;;;;;3.75;1.38;;;20.00;49.80;;;;;;5017082;28;20151;-74
2021/10/15 09:23:02;;;;;;;5.53;1.88;;;20.10;51.10;;;;;;5027194;28;20480;-81
2021/10/15 09:25:35;;;;;;;2.70;1.17;;;20.20;50.50;;;;;;5023741;28;20014;-74
2021/10/15 09:28:10;;;;;;;7.35;1.15;;;20.20;51.20;;;;;;5026894;28;20025;-75
2021/10/15 09:30:39;;;;;;;;;;;20.20;51.10;;;;;;5032597;28;20026;-86
2021/10/15 09:33:06;;;;;;;5.85;1.38;;;20.30;51.20;;;;;;5025178;28;19920;-74
2021/10/15 09:35:33;;;;;;;6.63;1.48;;;20.30;50.40;;;;;;5028130;28;20075;-74
2021/10/15 09:38:06;;;;;;;6.25;1.48;;;20.30;50.70;;;;;;5011790;28;20120;-74
2021/10/15 09:40:42;;;;;;;6.15;1.30;;;20.50;51.20;;;;;;5029069;28;20037;-75
2021/10/15 09:43:11;;;;;;;6.85;2.17;;;20.60;50.50;;;;;;5005631;28;20033;-73
2021/10/15 09:45:45;;;;;;;4.85;1.42;;;20.60;49.60;;;;;;5029345;28;20036;-75
2021/10/15 09:48:24;;;;;;;4.80;1.42;;;20.70;50.60;;;;;;5024138;28;20104;-75
2021/10/15 09:51:16;;;;;;;7.22;1.25;;;20.80;50.60;;;;;;5023388;28;20068;-78
2021/10/15 09:54:18;;;;;;;4.90;1.13;;;21.00;49.20;;;;;;5026144;28;20112;-74
2021/10/15 09:56:51;;;;;;;3.40;1.20;;;21.00;49.10;;;;;;5026686;28;20112;-74
2021/10/15 09:59:18;;;;;;;8.18;1.83;;;21.10;48.60;;;;;;5030471;28;20152;-77
2021/10/15 10:01:45;;;;;;;6.63;1.35;;;21.20;48.50;;;;;;5027087;28;20025;-75
2021/10/15 10:04:14;;;;;;;4.53;1.23;;;21.20;48.50;;;;;;5012324;28;20392;-79
2021/10/15 10:06:40;;;;;;;4.32;1.38;;;21.10;48.00;;;;;;5025164;28;20392;-83
2021/10/15 10:09:09;;;;;;;3.20;1.20;;;21.10;48.80;;;;;;5011863;28;20037;-87
2021/10/15 10:11:36;;;;;;;4.10;1.42;;;21.10;49.00;;;;;;5027896;28;20045;-83
2021/10/15 10:14:02;;;;;;;6.22;1.85;;;21.00;49.10;;;;;;5027186;28;20084;-76
2021/10/15 10:16:30;;;;;;;4.90;1.15;;;21.10;48.60;;;;;;5023213;28;20018;-78
2021/10/15 10:19:01;;;;;;;4.30;1.30;;;21.10;48.70;;;;;;5023706;28;20036;-75
2021/10/15 10:21:33;;;;;;;3.50;1.52;;;21.10;48.30;;;;;;5025575;28;20109;-77
2021/10/15 10:24:07;;;;;;;8.52;1.38;;;21.10;48.30;;;;;;5030330;28;20070;-73
2021/10/15 10:26:52;;;;;;;4.88;1.60;;;21.20;48.30;;;;;;5020683;28;20021;-76
2021/10/15 10:29:19;;;;;;;5.77;1.23;;;21.20;47.30;;;;;;5024766;28;20060;-75
2021/10/15 10:31:46;;;;;;;4.03;1.02;;;21.20;47.00;;;;;;5028402;28;20080;-74
2021/10/15 10:34:24;;;;;;;9.35;1.75;;;21.20;47.30;;;;;;5022403;28;20747;-74
2021/10/15 10:37:12;;;;;;;5.40;1.23;;;21.10;47.00;;;;;;5002822;28;20029;-76
2021/10/15 10:39:39;;;;;;;6.68;1.35;;;21.20;47.30;;;;;;5024747;28;20061;-77
2021/10/15 10:42:09;;;;;;;7.32;1.75;;;21.20;47.00;;;;;;5025827;28;20488;-77
2021/10/15 10:45:00;;;;;;;4.05;0.90;;;21.30;46.90;;;;;;5028875;28;20041;-76
2021/10/15 10:47:27;;;;;;;4.45;1.08;;;21.20;46.40;;;;;;5022757;28;20025;-75
2021/10/15 10:50:04;;;;;;;5.82;1.60;;;21.20;46.00;;;;;;5021490;28;20024;-74
2021/10/15 10:52:32;;;;;;;4.68;1.27;;;21.20;45.90;;;;;;5026408;28;20028;-80
2021/10/15 10:54:58;;;;;;;5.40;1.80;;;21.30;46.80;;;;;;5025636;28;20155;-75
2021/10/15 10:57:30;;;;;;;5.43;1.73;;;21.30;46.20;;;;;;5028351;28;20020;-78
2021/10/15 11:00:24;;;;;;;8.27;1.40;;;21.40;47.30;;;;;;5025615;28;20026;-82
2021/10/15 11:02:54;;;;;;;7.07;2.13;;;21.40;47.70;;;;;;5024683;28;20033;-76
2021/10/15 11:05:34;;;;;;;5.53;1.42;;;21.50;48.00;;;;;;5024916;28;20014;-74
2021/10/15 11:08:24;;;;;;;5.75;1.33;;;21.50;48.00;;;;;;5026878;28;20049;-78
2021/10/15 11:10:53;;;;;;;3.53;1.23;;;21.50;48.60;;;;;;5025928;28;20033;-78
2021/10/15 11:13:33;;;;;;;4.95;1.48;;;21.60;48.50;;;;;;5028973;28;20029;-75
2021/10/15 11:16:00;;;;;;;7.22;1.25;;;21.60;47.60;;;;;;5023873;28;20018;-80
2021/10/15 11:18:27;;;;;;;5.35;1.40;;;21.60;48.00;;;;;;5024107;28;20018;-74
2021/10/15 11:20:54;;;;;;;6.07;1.45;;;21.60;48.40;;;;;;5026515;28;20635;-77
2021/10/15 11:23:21;;;;;;;7.22;1.25;;;21.70;49.00;;;;;;5019786;28;20026;-78
2021/10/15 11:25:49;;;;;;;6.78;1.23;;;21.80;48.60;;;;;;5020388;28;20029;-80
2021/10/15 11:28:18;;;;;;;3.67;1.75;;;21.90;48.60;;;;;;5022136;28;20037;-79
2021/10/15 11:30:47;;;;;;;8.88;1.42;;;21.90;47.80;;;;;;5022779;28;20022;-76
2021/10/15 11:33:16;;;;;;;2.78;1.52;;;21.90;48.30;;;;;;5025460;28;20049;-79
2021/10/15 11:35:45;;;;;;;5.88;0.90;;;21.90;48.80;;;;;;5023092;28;20026;-75
2021/10/15 11:38:20;;;;;;;4.70;1.42;;;22.00;48.50;;;;;;5003830;28;20057;-76
2021/10/15 11:40:51;;;;;;;7.32;1.45;;;22.00;47.90;;;;;;5022176;28;20093;-74
2021/10/15 11:43:26;;;;;;;3.28;1.10;;;22.10;47.70;;;;;;5019291;28;20088;-78
2021/10/15 11:45:54;;;;;;;4.40;1.20;;;22.10;47.10;;;;;;5018092;28;20021;-78
2021/10/15 11:48:30;;;;;;;8.27;1.73;;;22.00;47.70;;;;;;5018496;28;20052;-77
2021/10/15 11:51:00;;;;;;;2.85;1.10;;;22.00;47.30;;;;;;5018077;28;20050;-77
2021/10/15 11:53:29;;;;;;;5.35;2.08;;;22.00;47.30;;;;;;5019952;28;20069;-77
2021/10/15 11:55:56;;;;;;;5.97;0.98;;;22.10;47.00;;;;;;5017439;28;20087;-73
2021/10/15 11:58:35;;;;;;;5.20;1.17;;;22.10;45.30;;;;;;5026670;28;20017;-80
2021/10/15 12:01:06;;;;;;;5.18;1.30;;;22.20;45.20;;;;;;5023951;28;20030;-79
2021/10/15 12:03:37;;;;;;;4.00;1.20;;;22.10;45.10;;;;;;5007947;28;20084;-76
2021/10/15 12:06:31;;;;;;;7.07;1.30;;;22.10;45.30;;;;;;5019676;28;20098;-76
2021/10/15 12:09:00;;;;;;;5.68;3.08;;;22.10;44.80;;;;;;5003139;28;20026;-75
2021/10/15 12:14:08;;;;;;;8.50;1.27;;;22.20;45.70;;;;;;5013710;28;20037;-76
2021/10/15 12:16:46;;;;;;;3.50;1.15;;;22.20;45.10;;;;;;5020376;28;20048;-83
2021/10/15 12:19:22;;;;;;;7.30;1.52;;;22.30;43.50;;;;;;5022422;28;20014;-85
2021/10/15 12:21:59;;;;;;;6.38;1.92;;;22.40;42.90;;;;;;5022940;28;20040;-77
2021/10/15 12:24:34;;;;;;;1.95;1.00;;;22.40;42.20;;;;;;5026749;28;20112;-75
2021/10/15 12:27:23;;;;;;;3.53;1.15;;;22.40;43.10;;;;;;5025278;28;20461;-80
2021/10/15 12:29:52;;;;;;;2.40;0.77;;;22.50;43.00;;;;;;5025902;28;20073;-80
2021/10/15 12:32:39;;;;;;;4.43;1.25;;;22.60;42.30;;;;;;5019149;28;20025;-86
2021/10/15 12:35:18;;;;;;;2.85;1.15;;;22.60;41.90;;;;;;5024745;28;20397;-75
2021/10/15 12:37:54;;;;;;;2.08;0.68;;;22.50;42.40;;;;;;5019579;28;20022;-75
2021/10/15 12:40:38;;;;;;;6.13;1.15;;;22.40;41.20;;;;;;5025152;28;20025;-78
2021/10/15 12:43:12;;;;;;;6.22;1.40;;;22.30;42.40;;;;;;5017844;28;20089;-83
2021/10/15 12:45:54;;;;;;;5.38;1.27;;;22.20;42.70;;;;;;5007474;28;20456;-74
2021/10/15 12:48:35;;;;;;;3.63;0.95;;;22.20;43.10;;;;;;5024324;28;20088;-80
2021/10/15 12:51:15;;;;;;;7.45;1.10;;;22.30;43.70;;;;;;5025256;28;20021;-77
2021/10/15 12:53:42;;;;;;;6.30;1.17;;;22.30;44.20;;;;;;5021482;28;20038;-75
2021/10/15 12:56:18;;;;;;;4.05;1.42;;;22.30;43.50;;;;;;5009844;28;20483;-75
2021/10/15 12:59:00;;;;;;;3.53;1.23;;;22.30;43.40;;;;;;5029411;28;20148;-74
2021/10/15 13:01:29;;;;;;;5.57;1.27;;;22.30;44.50;;;;;;5028433;28;20049;-82
2021/10/15 13:03:57;;;;;;;2.42;1.02;;;22.30;43.80;;;;;;5023442;28;20084;-81
2021/10/15 13:06:24;;;;;;;4.60;1.02;;;22.30;43.20;;;;;;5027846;28;20029;-79